Time,TemperatureF,DewpointF,PressureIn,WindDirection,WindDirectionDegrees,WindSpeedMPH,WindSpeedGustMPH,Humidity,HourlyPrecipIn,Conditions,Clouds,dailyrainin,SoftwareType,DateUTC
2013-12-20 00:00:00,-2.5,-8.4,26.90,North,0,0.0,0.0,75,0.00,,,0.00,VWS V14.01,2013-12-20 07:00:00,
2013-12-20 00:05:00,-2.5,-8.4,26.90,North,0,0.0,0.0,75,0.00,,,0.00,VWS V14.01,2013-12-20 07:05:00,
2013-12-20 00:10:00,-2.3,-8.3,26.90,NNE,22,0.0,0.0,75,0.00,,,0.00,VWS V14.01,2013-12-20 07:10:00,
2013-12-20 00:15:00,-2.3,-8.0,26.90,North,0,0.0,0.0,76,0.00,,,0.00,VWS V14.01,2013-12-20 07:15:00,
2013-12-20 00:20:00,-2.3,-8.0,26.90,WNW,292,0.0,0.0,76,0.00,,,0.00,VWS V14.01,2013-12-20 07:20:00,
2013-12-20 00:25:00,-2.2,-7.9,26.89,NW,315,0.0,0.0,76,0.00,,,0.00,VWS V14.01,2013-12-20 07:25:00,
2013-12-20 00:30:00,-2.0,-7.7,26.89,North,0,0.0,0.0,76,0.00,,,0.00,VWS V14.01,2013-12-20 07:30:00,
2013-12-20 00:35:00,-2.0,-7.7,26.89,South,180,0.0,0.0,76,0.00,,,0.00,VWS V14.01,2013-12-20 07:35:00,
2013-12-20 00:40:00,-2.0,-7.7,26.89,South,180,0.0,0.0,76,0.00,,,0.00,VWS V14.01,2013-12-20 07:40:00,
2013-12-20 00:45:00,-2.3,-8.0,26.90,South,180,0.0,0.0,76,0.00,,,0.00,VWS V14.01,2013-12-20 07:45:00,
2013-12-20 00:50:00,-2.3,-8.0,26.90,South,180,0.0,0.0,76,0.00,,,0.00,VWS V14.01,2013-12-20 07:50:00,
2013-12-20 00:55:00,-2.7,-8.6,26.90,WNW,292,0.0,0.0,75,0.00,,,0.00,VWS V14.01,2013-12-20 07:55:00,
2013-12-20 01:00:00,-3.1,-9.0,26.90,North,0,0.0,0.0,75,0.00,,,0.00,VWS V14.01,2013-12-20 08:00:00,
2013-12-20 01:05:00,-3.2,-9.1,26.90,North,0,0.0,0.0,75,0.00,,,0.00,VWS V14.01,2013-12-20 08:05:00,
2013-12-20 01:10:00,-3.4,-9.3,26.90,North,0,0.0,0.0,75,0.00,,,0.00,VWS V14.01,2013-12-20 08:10:00,
2013-12-20 01:15:00,-3.4,-9.3,26.90,North,0,0.0,0.0,75,0.00,,,0.00,VWS V14.01,2013-12-20 08:15:00,
2013-12-20 01:20:00,-3.6,-9.5,26.90,North,0,0.0,0.0,75,0.00,,,0.00,VWS V14.01,2013-12-20 08:20:00,
2013-12-20 01:25:00,-3.8,-9.7,26.89,North,0,0.0,0.0,75,0.00,,,0.00,VWS V14.01,2013-12-20 08:25:00,
2013-12-20 01:30:00,-4.1,-10.0,26.89,North,0,0.0,0.0,75,0.00,,,0.00,VWS V14.01,2013-12-20 08:30:00,
2013-12-20 01:35:00,-4.1,-10.0,26.90,North,0,0.0,0.0,75,0.00,,,0.00,VWS V14.01,2013-12-20 08:35:00,
2013-12-20 01:40:00,-4.1,-10.0,26.90,North,0,0.0,0.0,75,0.00,,,0.00,VWS V14.01,2013-12-20 08:40:00,
2013-12-20 01:45:00,-4.3,-10.2,26.90,North,0,0.0,0.0,75,0.00,,,0.00,VWS V14.01,2013-12-20 08:45:00,
2013-12-20 01:50:00,-4.7,-10.6,26.91,North,0,0.0,0.0,75,0.00,,,0.00,VWS V14.01,2013-12-20 08:50:00,
2013-12-20 01:56:00,-4.7,-10.6,26.91,North,0,0.0,0.0,75,0.00,,,0.00,VWS V14.01,2013-12-20 08:56:00,
2013-12-20 02:01:00,-5.0,-10.9,26.91,North,0,0.0,0.0,75,0.00,,,0.00,VWS V14.01,2013-12-20 09:01:00,
2013-12-20 02:06:00,-5.2,-11.1,26.90,North,0,0.0,0.0,75,0.00,,,0.00,VWS V14.01,2013-12-20 09:06:00,
2013-12-20 02:11:00,-5.6,-11.5,26.90,North,0,0.0,0.0,75,0.00,,,0.00,VWS V14.01,2013-12-20 09:11:00,
2013-12-20 02:16:00,-5.9,-12.0,26.91,North,0,0.0,0.0,74,0.00,,,0.00,VWS V14.01,2013-12-20 09:16:00,
2013-12-20 02:21:00,-6.3,-12.4,26.91,West,270,0.0,0.0,74,0.00,,,0.00,VWS V14.01,2013-12-20 09:21:00,
2013-12-20 02:26:00,-6.7,-12.8,26.90,WNW,292,0.0,0.0,74,0.00,,,0.00,VWS V14.01,2013-12-20 09:26:00,
2013-12-20 02:31:00,-7.0,-13.1,26.90,NW,315,0.0,0.0,74,0.00,,,0.00,VWS V14.01,2013-12-20 09:31:00,
2013-12-20 02:36:00,-7.4,-13.5,26.90,WNW,292,0.0,0.0,74,0.00,,,0.00,VWS V14.01,2013-12-20 09:36:00,
2013-12-20 02:41:00,-7.7,-13.8,26.90,WNW,292,0.0,0.0,74,0.00,,,0.00,VWS V14.01,2013-12-20 09:41:00,
2013-12-20 02:46:00,-7.7,-13.8,26.89,WNW,292,0.0,0.0,74,0.00,,,0.00,VWS V14.01,2013-12-20 09:46:00,
2013-12-20 02:51:00,-7.9,-14.0,26.90,WNW,292,0.0,0.0,74,0.00,,,0.00,VWS V14.01,2013-12-20 09:51:00,
2013-12-20 02:56:00,-7.9,-14.0,26.89,WSW,248,0.0,0.0,74,0.00,,,0.00,VWS V14.01,2013-12-20 09:56:00,
2013-12-20 03:01:00,-8.3,-14.4,26.89,North,0,0.0,0.0,74,0.00,,,0.00,VWS V14.01,2013-12-20 10:01:00,
2013-12-20 03:06:00,-8.8,-14.8,26.88,North,0,0.0,0.0,74,0.00,,,0.00,VWS V14.01,2013-12-20 10:06:00,
2013-12-20 03:11:00,-8.8,-14.8,26.88,North,0,0.0,0.0,74,0.00,,,0.00,VWS V14.01,2013-12-20 10:11:00,
2013-12-20 03:16:00,-9.0,-15.0,26.88,North,0,0.0,0.0,74,0.00,,,0.00,VWS V14.01,2013-12-20 10:16:00,
2013-12-20 03:21:00,-9.2,-15.2,26.87,North,0,0.0,0.0,74,0.00,,,0.00,VWS V14.01,2013-12-20 10:21:00,
2013-12-20 03:26:00,-9.2,-15.2,26.87,North,0,0.0,0.0,74,0.00,,,0.00,VWS V14.01,2013-12-20 10:26:00,
2013-12-20 03:31:00,-9.4,-15.4,26.87,North,0,0.0,0.0,74,0.00,,,0.00,VWS V14.01,2013-12-20 10:31:00,
2013-12-20 03:36:00,-9.4,-15.4,26.86,North,0,0.0,0.0,74,0.00,,,0.00,VWS V14.01,2013-12-20 10:36:00,
2013-12-20 03:42:00,-9.4,-15.4,26.86,North,0,0.0,0.0,74,0.00,,,0.00,VWS V14.01,2013-12-20 10:42:00,
2013-12-20 03:47:00,-9.4,-15.4,26.86,NW,315,0.0,0.0,74,0.00,,,0.00,VWS V14.01,2013-12-20 10:47:00,
2013-12-20 03:52:00,-9.2,-15.2,26.85,WSW,248,0.0,0.0,74,0.00,,,0.00,VWS V14.01,2013-12-20 10:52:00,
2013-12-20 03:57:00,-9.0,-15.0,26.85,WNW,292,0.0,0.0,74,0.00,,,0.00,VWS V14.01,2013-12-20 10:57:00,
2013-12-20 04:02:00,-8.6,-14.4,26.85,SSW,202,0.0,0.0,75,0.00,,,0.00,VWS V14.01,2013-12-20 11:02:00,
2013-12-20 04:07:00,-7.4,-12.9,26.84,SE,135,0.0,0.0,76,0.00,,,0.00,VWS V14.01,2013-12-20 11:07:00,
2013-12-20 04:12:00,-5.8,-11.1,26.84,SSW,202,0.0,0.0,77,0.00,,,0.00,VWS V14.01,2013-12-20 11:12:00,
2013-12-20 04:17:00,-5.0,-10.4,26.84,SE,135,0.0,0.0,77,0.00,,,0.00,VWS V14.01,2013-12-20 11:17:00,
2013-12-20 04:22:00,-4.7,-10.1,26.83,South,180,0.0,0.0,77,0.00,,,0.00,VWS V14.01,2013-12-20 11:22:00,
2013-12-20 04:27:00,-4.3,-9.7,26.83,South,180,0.0,0.0,77,0.00,,,0.00,VWS V14.01,2013-12-20 11:27:00,
2013-12-20 04:32:00,-4.3,-9.7,26.83,SE,135,0.0,0.0,77,0.00,,,0.00,VWS V14.01,2013-12-20 11:32:00,
2013-12-20 04:37:00,-4.1,-9.5,26.82,ESE,112,0.0,0.0,77,0.00,,,0.00,VWS V14.01,2013-12-20 11:37:00,
2013-12-20 04:42:00,-4.1,-9.5,26.82,SE,135,0.0,0.0,77,0.00,,,0.00,VWS V14.01,2013-12-20 11:42:00,
2013-12-20 04:47:00,-4.1,-9.2,26.82,SSE,158,0.0,0.0,78,0.00,,,0.00,VWS V14.01,2013-12-20 11:47:00,
2013-12-20 04:52:00,-3.8,-8.9,26.82,South,180,0.0,0.0,78,0.00,,,0.00,VWS V14.01,2013-12-20 11:52:00,
2013-12-20 04:57:00,-3.8,-8.9,26.82,North,0,0.0,0.0,78,0.00,,,0.00,VWS V14.01,2013-12-20 11:57:00,
2013-12-20 05:02:00,-3.8,-8.9,26.82,NE,45,0.0,0.0,78,0.00,,,0.00,VWS V14.01,2013-12-20 12:02:00,
2013-12-20 05:07:00,-3.8,-8.9,26.82,NNE,22,0.0,0.0,78,0.00,,,0.00,VWS V14.01,2013-12-20 12:07:00,
2013-12-20 05:12:00,-3.4,-8.5,26.82,South,180,0.0,0.0,78,0.00,,,0.00,VWS V14.01,2013-12-20 12:12:00,
2013-12-20 05:17:00,-3.2,-8.3,26.82,ESE,112,0.0,0.0,78,0.00,,,0.00,VWS V14.01,2013-12-20 12:17:00,
2013-12-20 05:23:00,-2.7,-7.6,26.81,ESE,112,0.0,0.0,79,0.00,,,0.00,VWS V14.01,2013-12-20 12:23:00,
2013-12-20 05:28:00,-2.2,-7.1,26.81,SSE,158,0.0,0.0,79,0.00,,,0.00,VWS V14.01,2013-12-20 12:28:00,
2013-12-20 05:33:00,-2.0,-6.9,26.81,East,90,0.0,0.0,79,0.00,,,0.00,VWS V14.01,2013-12-20 12:33:00,
2013-12-20 05:38:00,-2.0,-6.9,26.81,SSE,158,0.0,0.0,79,0.00,,,0.00,VWS V14.01,2013-12-20 12:38:00,
2013-12-20 05:43:00,-1.8,-6.7,26.80,SSW,202,0.0,0.0,79,0.00,,,0.00,VWS V14.01,2013-12-20 12:43:00,
2013-12-20 05:48:00,-1.6,-6.5,26.80,South,180,0.0,0.0,79,0.00,,,0.00,VWS V14.01,2013-12-20 12:48:00,
2013-12-20 05:53:00,-1.6,-6.5,26.79,SSE,158,0.0,0.0,79,0.00,,,0.00,VWS V14.01,2013-12-20 12:53:00,
2013-12-20 05:58:00,-1.1,-5.8,26.79,SSE,158,0.0,0.0,80,0.00,,,0.00,VWS V14.01,2013-12-20 12:58:00,
2013-12-20 06:03:00,-1.1,-5.8,26.79,West,270,0.0,0.0,80,0.00,,,0.00,VWS V14.01,2013-12-20 13:03:00,
2013-12-20 06:08:00,-1.1,-5.8,26.78,SE,135,0.0,0.0,80,0.00,,,0.00,VWS V14.01,2013-12-20 13:08:00,
2013-12-20 06:13:00,-1.1,-5.8,26.78,East,90,0.0,0.0,80,0.00,,,0.00,VWS V14.01,2013-12-20 13:13:00,
2013-12-20 06:18:00,-1.1,-6.0,26.78,SSE,158,0.0,0.0,79,0.00,,,0.00,VWS V14.01,2013-12-20 13:18:00,
2013-12-20 06:23:00,-1.1,-6.0,26.78,SE,135,0.0,0.0,79,0.00,,,0.00,VWS V14.01,2013-12-20 13:23:00,
2013-12-20 06:28:00,-1.1,-6.0,26.77,SSE,158,0.0,0.0,79,0.00,,,0.00,VWS V14.01,2013-12-20 13:28:00,
2013-12-20 06:33:00,-1.1,-6.0,26.77,South,180,0.0,0.0,79,0.00,,,0.00,VWS V14.01,2013-12-20 13:33:00,
2013-12-20 06:38:00,-0.9,-5.6,26.78,SE,135,0.0,0.0,80,0.00,,,0.00,VWS V14.01,2013-12-20 13:38:00,
2013-12-20 06:43:00,-0.7,-5.4,26.77,SSE,158,0.0,0.0,80,0.00,,,0.00,VWS V14.01,2013-12-20 13:43:00,
2013-12-20 06:48:00,-0.5,-5.2,26.77,South,180,0.0,0.0,80,0.00,,,0.00,VWS V14.01,2013-12-20 13:48:00,
2013-12-20 06:53:00,-0.5,-5.2,26.77,WSW,248,0.0,0.0,80,0.00,,,0.00,VWS V14.01,2013-12-20 13:53:00,
2013-12-20 06:58:00,-0.5,-5.2,26.76,ESE,112,0.0,0.0,80,0.00,,,0.00,VWS V14.01,2013-12-20 13:58:00,
2013-12-20 07:03:00,-0.2,-4.9,26.76,ESE,112,0.0,0.0,80,0.00,,,0.00,VWS V14.01,2013-12-20 14:03:00,
2013-12-20 07:08:00,-0.2,-5.2,26.76,SSE,158,0.0,0.0,79,0.00,,,0.00,VWS V14.01,2013-12-20 14:08:00,
2013-12-20 07:13:00,-0.2,-5.2,26.76,SSE,158,0.0,0.0,79,0.00,,,0.00,VWS V14.01,2013-12-20 14:13:00,
2013-12-20 07:18:00,-0.2,-5.2,26.76,SSE,158,0.0,0.0,79,0.00,,,0.00,VWS V14.01,2013-12-20 14:18:00,
2013-12-20 07:23:00,32.0,32.0,0.00,North,0,0.0,0.0,100,0.00,,,0.00,VWS V14.01,2013-12-20 14:23:00,
2013-12-20 07:28:00,-0.2,-4.9,26.76,ESE,112,0.0,0.0,80,0.00,,,0.00,VWS V14.01,2013-12-20 14:28:00,